首页
METAR-TAF:

METAR-TAF

机场 :

奧西耶克, 克罗地亚

纬度: 45-27N, 经度: 018-48E, 海拔: 88米

当前天气观测

该预报发布于24分钟前的08:30 UTC
风速6节,风向,在东转东北东南之间变化
温度 17°C
湿度 42%
气压 1020 hPa
能见度10公里或以上
1500米以下无云,无积雨云

METAR: LDOS 220830Z 10006KT 060V130 CAVOK 17/04 Q1020

时间: 10:54 (08:54 UTC)

预报

该预报发布于3小时和29分钟前的05:25 UTC
预报有效从22日的 06点(UTC)到 23日的 06点(UTC)
风速7节,风向东南
能见度10公里或以上
1500米以下无云,无积雨云

TAF: LDOS 220525Z 2206/2306 14007KT CAVOK TX21/2214Z TN05/2206Z

超过4000个机场的气象观测和天气预报(METAR&TAF报告)。

可查询的气象台以黄色和红色小点在地图上表示。

将鼠标移到小点上方,可查看气象台名称。

然后点击查看天气观测和预报。

如需切换地图:点击带黑十字的绿色按钮放大地图;点击带横线的绿色按钮缩小地图;或者点击绿色箭头查看邻近地区的地图。


METAR-TAF: